Time;durP1;ratioP1;P1;durP2;ratioP2;P2;SDS_P1;SDS_P2;PMS_P1;PMS_P2;Temp;Humidity;BMP_temperature;BMP_pressure;BME280_temperature;BME280_humidity;BME280_pressure;Samples;Min_cycle;Max_cycle;Signal;HPM_P1;HPM_P2
2023/01/12 00:01:42;;;;;;;10.30;4.90;;;;;;;4.41;100.00;99270.59;109605;1251;58680;-65
2023/01/12 00:04:30;;;;;;;10.20;4.70;;;;;;;4.43;100.00;99271.02;109587;1252;72933;-64
2023/01/12 00:07:19;;;;;;;9.60;4.70;;;;;;;4.45;100.00;99266.53;109597;1251;68040;-68
2023/01/12 00:10:08;;;;;;;8.90;4.00;;;;;;;4.46;100.00;99265.43;109576;1252;72792;-64
2023/01/12 00:12:57;;;;;;;9.50;4.40;;;;;;;4.48;100.00;99271.79;109606;1251;59360;-65
2023/01/12 00:18:51;;;;;;;8.90;3.80;;;;;;;4.48;100.00;99270.05;109615;1253;74138;-64
2023/01/12 00:24:54;;;;;;;7.90;3.60;;;;;;;4.45;100.00;99277.58;109581;1253;71251;-66
2023/01/12 00:27:42;;;;;;;11.00;4.70;;;;;;;4.44;100.00;99281.14;109536;1253;60228;-65
2023/01/12 00:30:29;;;;;;;8.60;4.20;;;;;;;4.45;100.00;99276.52;109509;1253;61493;-64
2023/01/12 00:33:18;;;;;;;9.40;3.90;;;;;;;4.50;100.00;99274.98;109558;1252;72908;-64
2023/01/12 00:36:11;;;;;;;9.00;4.40;;;;;;;4.53;100.00;99272.36;109516;1252;67626;-63
2023/01/12 00:39:00;;;;;;;8.90;4.20;;;;;;;4.56;100.00;99271.27;107975;1252;1002194;-63
2023/01/12 00:48:00;;;;;;;11.70;5.00;;;;;;;4.64;100.00;99280.73;109517;1253;72831;-63
2023/01/12 00:50:48;;;;;;;10.90;5.10;;;;;;;4.67;100.00;99284.42;109558;1253;67722;-64
2023/01/12 00:53:35;;;;;;;10.90;5.20;;;;;;;4.69;100.00;99283.23;109522;1252;72791;-63
2023/01/12 00:56:23;;;;;;;10.90;4.80;;;;;;;4.71;100.00;99284.52;109577;1253;57954;-65
2023/01/12 00:59:11;;;;;;;13.50;5.30;;;;;;;4.72;100.00;99282.69;109527;1253;58700;-64
2023/01/12 01:01:59;;;;;;;10.90;5.00;;;;;;;4.72;100.00;99283.73;109593;1252;72009;-64
2023/01/12 01:04:46;;;;;;;10.10;4.90;;;;;;;4.72;100.00;99290.57;109593;1252;68128;-64
2023/01/12 01:07:35;;;;;;;10.70;4.90;;;;;;;4.73;100.00;99287.90;109512;1253;71217;-64
2023/01/12 01:10:23;;;;;;;10.80;5.70;;;;;;;4.73;100.00;99291.77;109418;1253;59277;-64
2023/01/12 01:13:11;;;;;;;11.70;5.50;;;;;;;4.74;100.00;99294.34;109489;1253;59064;-64
2023/01/12 01:16:01;;;;;;;13.20;6.10;;;;;;;4.74;100.00;99292.02;109583;1252;72776;-63
2023/01/12 01:18:49;;;;;;;12.40;5.30;;;;;;;4.75;100.00;99284.09;109390;1253;68214;-62
2023/01/12 01:21:37;;;;;;;12.90;5.70;;;;;;;4.73;100.00;99281.75;109553;1253;71612;-63
2023/01/12 01:24:25;;;;;;;13.00;6.00;;;;;;;4.71;100.00;99284.19;109581;1252;59348;-68
2023/01/12 01:27:12;;;;;;;11.70;4.90;;;;;;;4.69;100.00;99284.85;109551;1253;61056;-63
2023/01/12 01:30:01;;;;;;;11.40;5.60;;;;;;;4.69;100.00;99288.01;109538;1253;74218;-63
2023/01/12 01:32:48;;;;;;;12.70;5.80;;;;;;;4.67;100.00;99292.16;109524;1252;67756;-65
2023/01/12 01:35:36;;;;;;;10.90;4.50;;;;;;;4.66;100.00;99291.66;109519;1252;72643;-63
2023/01/12 01:38:24;;;;;;;13.80;5.60;;;;;;;4.64;100.00;99286.72;109528;1253;57997;-64
2023/01/12 01:41:21;;;;;;;18.00;5.70;;;;;;;4.62;100.00;99282.83;109505;1253;60243;-65
2023/01/12 01:44:27;;;;;;;12.00;5.20;;;;;;;4.58;100.00;99283.09;109406;1253;71467;-64
2023/01/12 01:47:27;;;;;;;12.80;5.10;;;;;;;4.55;100.00;99285.52;109547;1252;67643;-64
2023/01/12 01:50:28;;;;;;;11.10;4.90;;;;;;;4.54;100.00;99279.15;109395;1253;72475;-64
2023/01/12 01:53:22;;;;;;;11.30;5.10;;;;;;;4.52;100.00;99282.05;109400;1253;57977;-65
2023/01/12 01:56:26;;;;;;;14.40;5.70;;;;;;;4.50;100.00;99284.98;109535;1253;59497;-64
2023/01/12 01:59:21;;;;;;;10.10;5.00;;;;;;;4.49;100.00;99288.24;109546;1253;74377;-64
2023/01/12 02:02:10;;;;;;;11.40;4.80;;;;;;;4.48;100.00;99286.55;109287;1253;69224;-67
2023/01/12 02:04:59;;;;;;;11.00;4.50;;;;;;;4.47;100.00;99282.39;109302;1253;74069;-63
2023/01/12 02:07:49;;;;;;;12.70;5.20;;;;;;;4.45;100.00;99290.45;109293;1253;59727;-64
2023/01/12 02:10:38;;;;;;;13.50;5.40;;;;;;;4.43;100.00;99283.88;109498;1253;60059;-64
2023/01/12 02:16:45;;;;;;;11.10;4.80;;;;;;;4.40;100.00;99275.79;109409;1253;67081;-63
2023/01/12 02:20:05;;;;;;;13.80;5.40;;;;;;;4.38;100.00;99277.89;109512;1252;72023;-63
2023/01/12 02:22:57;;;;;;;14.30;5.70;;;;;;;4.35;100.00;99271.58;109513;1253;59793;-65
2023/01/12 02:26:22;;;;;;;11.30;5.20;;;;;;;4.32;100.00;99276.47;109554;1253;59226;-64
2023/01/12 02:29:43;;;;;;;15.80;5.80;;;;;;;4.30;100.00;99274.71;109537;1253;72897;-63
2023/01/12 02:32:55;;;;;;;15.40;6.00;;;;;;;4.29;100.00;99280.73;109358;1253;68017;-64
2023/01/12 02:35:57;;;;;;;16.40;5.70;;;;;;;4.26;100.00;99279.48;109512;1253;73437;-64
2023/01/12 02:39:17;;;;;;;13.10;6.10;;;;;;;4.22;100.00;99283.09;109486;1253;59483;-63
2023/01/12 02:42:40;;;;;;;12.50;5.50;;;;;;;4.17;100.00;99285.17;109498;1252;60456;-64
2023/01/12 02:46:00;;;;;;;13.20;5.10;;;;;;;4.14;100.00;99295.39;109520;1253;71542;-63
2023/01/12 02:49:03;;;;;;;11.50;4.80;;;;;;;4.10;100.00;99295.96;109384;1253;68120;-63
2023/01/12 02:52:00;;;;;;;13.30;5.50;;;;;;;4.08;100.00;99300.67;109334;1253;71349;-63
2023/01/12 02:54:48;;;;;;;13.50;5.20;;;;;;;4.06;100.00;99299.35;109215;1253;170816;-63
2023/01/12 02:57:37;;;;;;;12.20;4.90;;;;;;;4.05;100.00;99291.51;109424;1253;61523;-63
2023/01/12 03:00:25;;;;;;;13.50;5.00;;;;;;;4.06;100.00;99289.17;109521;1252;73130;-62
2023/01/12 03:03:16;;;;;;;14.60;5.30;;;;;;;4.10;100.00;99288.04;109566;1253;67971;-63
2023/01/12 03:06:05;;;;;;;13.70;5.80;;;;;;;4.14;100.00;99291.18;109529;1253;72750;-63
2023/01/12 03:08:53;;;;;;;13.40;5.10;;;;;;;4.17;100.00;99295.86;109261;1253;59343;-63
2023/01/12 03:11:45;;;;;;;16.20;5.60;;;;;;;4.19;100.00;99292.44;109461;1253;59460;-62
2023/01/12 03:14:37;;;;;;;15.90;5.80;;;;;;;4.22;100.00;99289.04;109555;1253;73181;-64
2023/01/12 03:17:59;;;;;;;15.40;5.70;;;;;;;4.26;100.00;99293.91;109549;1253;67148;-63
2023/01/12 03:20:53;;;;;;;12.80;5.50;;;;;;;4.31;100.00;99296.77;109315;1253;71160;-65
2023/01/12 03:23:58;;;;;;;14.80;4.70;;;;;;;4.37;100.00;99295.68;109435;1253;58183;-64
2023/01/12 03:26:58;;;;;;;14.60;5.40;;;;;;;4.42;100.00;99299.40;109533;1256;58972;-65
2023/01/12 03:29:56;;;;;;;13.00;5.70;;;;;;;4.49;100.00;99304.39;109596;1253;72747;-63
2023/01/12 03:32:44;;;;;;;15.70;5.50;;;;;;;4.53;100.00;99305.73;109324;1253;68875;-65
2023/01/12 03:35:42;;;;;;;11.70;4.70;;;;;;;4.56;100.00;99309.75;109510;1252;72797;-64
2023/01/12 03:38:44;;;;;;;10.50;5.30;;;;;;;4.60;100.00;99299.29;109505;1253;57920;-64
2023/01/12 03:41:44;;;;;;;17.60;5.90;;;;;;;4.62;100.00;99291.07;109433;1253;59473;-64
2023/01/12 03:44:49;;;;;;;16.70;5.20;;;;;;;4.65;100.00;99291.95;109581;1253;71690;-65
2023/01/12 03:47:41;;;;;;;11.90;5.20;;;;;;;4.66;100.00;99295.09;109404;1257;69081;-64
2023/01/12 03:50:38;;;;;;;13.60;5.60;;;;;;;4.66;100.00;99296.41;109530;1253;71605;-64
2023/01/12 03:53:28;;;;;;;14.10;5.60;;;;;;;4.67;100.00;99298.32;109415;1253;57974;-65
2023/01/12 03:56:20;;;;;;;15.40;5.90;;;;;;;4.67;100.00;99290.95;109270;1252;60487;-64
2023/01/12 03:59:08;;;;;;;17.10;5.70;;;;;;;4.68;100.00;99288.06;109329;1253;71930;-67
2023/01/12 04:01:56;;;;;;;15.30;5.90;;;;;;;4.69;100.00;99283.95;109431;1253;66636;-65
2023/01/12 04:04:44;;;;;;;14.60;5.50;;;;;;;4.70;100.00;99285.80;109520;1253;73432;-66
2023/01/12 04:07:31;;;;;;;19.00;6.30;;;;;;;4.71;100.00;99278.05;109534;1253;58073;-63
2023/01/12 04:10:19;;;;;;;14.50;5.30;;;;;;;4.73;100.00;99273.68;109565;1253;59013;-64
2023/01/12 04:13:07;;;;;;;15.10;4.40;;;;;;;4.74;100.00;99272.37;109529;1253;72901;-67
2023/01/12 04:15:55;;;;;;;16.20;5.10;;;;;;;4.71;100.00;99264.49;109575;1253;67024;-63
2023/01/12 04:18:43;;;;;;;16.50;5.40;;;;;;;4.71;100.00;99262.01;109542;1253;72676;-63
2023/01/12 04:24:36;;;;;;;14.10;5.30;;;;;;;4.70;100.00;99267.39;109548;1253;58893;-63
2023/01/12 04:27:24;;;;;;;12.70;5.20;;;;;;;4.70;100.00;99258.89;109536;1253;71825;-63
2023/01/12 04:30:15;;;;;;;12.40;4.70;;;;;;;4.70;100.00;99258.20;109522;1252;69025;-63
2023/01/12 04:33:08;;;;;;;13.10;4.20;;;;;;;4.69;100.00;99261.46;109519;1253;72646;-63
2023/01/12 04:35:55;;;;;;;13.40;5.20;;;;;;;4.67;100.00;99262.80;109530;1253;59684;-64
2023/01/12 04:38:43;;;;;;;14.40;5.30;;;;;;;4.63;100.00;99260.80;109557;1253;60423;-64
2023/01/12 04:41:31;;;;;;;15.30;5.60;;;;;;;4.58;100.00;99263.92;109524;1253;72831;-63
2023/01/12 04:44:19;;;;;;;12.20;4.20;;;;;;;4.54;100.00;99258.36;109573;1253;69019;-63
2023/01/12 04:47:06;;;;;;;12.00;4.80;;;;;;;4.49;100.00;99250.14;109547;1252;71568;-63
2023/01/12 04:49:54;;;;;;;13.10;5.20;;;;;;;4.44;100.00;99250.27;109509;1253;59759;-63
2023/01/12 04:52:42;;;;;;;13.30;5.10;;;;;;;4.39;100.00;99247.27;109526;1252;60480;-68
2023/01/12 04:55:31;;;;;;;16.60;5.70;;;;;;;4.35;100.00;99251.68;109551;1253;71857;-64
2023/01/12 04:58:19;;;;;;;15.90;5.90;;;;;;;4.34;100.00;99251.58;109552;1253;68220;-62
2023/01/12 05:01:18;;;;;;;14.50;5.50;;;;;;;4.36;100.00;99250.62;109545;1253;72661;-64
2023/01/12 05:04:06;;;;;;;13.80;5.40;;;;;;;4.38;100.00;99256.05;109386;1253;58475;-63
2023/01/12 05:06:54;;;;;;;13.70;5.90;;;;;;;4.41;100.00;99262.39;109523;1254;61553;-64
2023/01/12 05:12:48;;;;;;;13.50;5.30;;;;;;;4.41;100.00;99253.61;109521;1253;68004;-65
2023/01/12 05:15:35;;;;;;;16.50;5.00;;;;;;;4.40;100.00;99258.95;109399;1252;73879;-65
2023/01/12 05:18:23;;;;;;;12.50;5.00;;;;;;;4.39;100.00;99248.95;109490;1252;58551;-64
2023/01/12 05:21:12;;;;;;;15.80;5.00;;;;;;;4.35;100.00;99245.92;109481;1252;59241;-65
2023/01/12 05:24:00;;;;;;;14.20;5.20;;;;;;;4.30;100.00;99246.43;109489;1253;72618;-66
2023/01/12 05:26:48;;;;;;;14.40;4.60;;;;;;;4.27;100.00;99248.02;109477;1253;68994;-65
2023/01/12 05:29:35;;;;;;;14.30;4.90;;;;;;;4.28;100.00;99243.73;109477;1255;72813;-64
2023/01/12 05:32:23;;;;;;;12.80;5.30;;;;;;;4.31;100.00;99241.97;109465;1252;58412;-66
2023/01/12 05:35:11;;;;;;;18.10;5.90;;;;;;;4.34;100.00;99239.45;109488;1253;58937;-66
2023/01/12 05:37:59;;;;;;;12.10;5.40;;;;;;;4.38;100.00;99235.86;109558;1253;71908;-65
2023/01/12 05:40:47;;;;;;;11.60;4.60;;;;;;;4.46;100.00;99238.58;109354;1253;68058;-65
2023/01/12 05:43:50;;;;;;;14.10;5.80;;;;;;;4.49;100.00;99233.11;109457;1254;72481;-65
2023/01/12 05:46:40;;;;;;;15.10;5.50;;;;;;;4.50;100.00;99224.58;109483;1253;59324;-65
2023/01/12 05:49:27;;;;;;;13.80;5.50;;;;;;;4.51;100.00;99232.38;109497;1254;60208;-65
2023/01/12 05:52:15;;;;;;;13.30;5.00;;;;;;;4.53;100.00;99231.59;109526;1256;72705;-66
2023/01/12 05:55:04;;;;;;;13.30;5.10;;;;;;;4.53;100.00;99230.52;109477;1253;69033;-65
2023/01/12 05:57:52;;;;;;;17.10;6.10;;;;;;;4.55;100.00;99227.05;109477;1253;72600;-66
2023/01/12 06:00:40;;;;;;;15.90;6.40;;;;;;;4.57;100.00;99218.35;109510;1253;58342;-65
2023/01/12 06:03:28;;;;;;;17.20;6.10;;;;;;;4.57;100.00;99218.11;109455;1253;58745;-64
2023/01/12 06:06:17;;;;;;;17.00;6.40;;;;;;;4.54;100.00;99210.59;109472;1254;73111;-64
2023/01/12 06:09:05;;;;;;;18.20;7.30;;;;;;;4.53;100.00;99213.29;109520;1252;69381;-66
2023/01/12 06:14:59;;;;;;;17.40;6.20;;;;;;;4.53;100.00;99210.69;109485;1253;59237;-66
2023/01/12 06:17:47;;;;;;;13.40;4.90;;;;;;;4.59;100.00;99214.84;109539;1252;60064;-65
2023/01/12 06:20:35;;;;;;;18.30;5.40;;;;;;;4.63;100.00;99213.20;109521;1253;73603;-66
2023/01/12 06:23:23;;;;;;;16.60;5.90;;;;;;;4.65;100.00;99213.38;109545;1251;68897;-67
2023/01/12 06:26:22;;;;;;;14.60;5.40;;;;;;;4.66;100.00;99217.87;109486;1253;72273;-64
2023/01/12 06:29:10;;;;;;;14.50;5.20;;;;;;;4.69;100.00;99208.40;109498;1252;60724;-65
2023/01/12 06:31:58;;;;;;;13.60;5.60;;;;;;;4.70;100.00;99205.11;109495;1253;59129;-67
2023/01/12 06:34:46;;;;;;;15.50;5.20;;;;;;;4.71;100.00;99205.06;109463;1253;71432;-64
2023/01/12 06:37:33;;;;;;;15.10;5.10;;;;;;;4.70;100.00;99197.59;109440;1254;68063;-65
2023/01/12 06:40:21;;;;;;;15.30;5.60;;;;;;;4.70;99.97;99204.59;109394;1253;72832;-67
2023/01/12 06:43:09;;;;;;;13.90;5.60;;;;;;;4.67;99.65;99205.37;109427;1253;58701;-65
2023/01/12 06:45:57;;;;;;;11.30;4.00;;;;;;;4.68;99.63;99206.55;109484;1254;60027;-66
2023/01/12 06:48:45;;;;;;;15.10;4.70;;;;;;;4.67;99.72;99211.66;109499;1252;73137;-68
2023/01/12 06:51:33;;;;;;;15.40;5.60;;;;;;;4.68;99.74;99211.23;109497;1253;68149;-64
2023/01/12 06:54:21;;;;;;;12.50;5.00;;;;;;;4.69;100.00;99215.06;109538;1252;73493;-66
2023/01/12 06:57:09;;;;;;;16.00;5.90;;;;;;;4.71;99.92;99213.01;109448;1254;60778;-66
2023/01/12 06:59:56;;;;;;;14.90;6.20;;;;;;;4.73;100.00;99214.30;109503;1253;58531;-66
2023/01/12 07:02:44;;;;;;;16.50;6.50;;;;;;;4.72;100.00;99216.40;109466;1254;73651;-65
2023/01/12 07:05:32;;;;;;;12.40;5.20;;;;;;;4.75;99.75;99215.35;105653;1253;1003107;-65
2023/01/12 07:08:20;;;;;;;16.30;5.50;;;;;;;4.75;99.73;99213.23;109486;1253;72696;-65
2023/01/12 07:11:07;;;;;;;13.70;5.80;;;;;;;4.77;99.89;99208.50;109471;1253;58191;-65
2023/01/12 07:13:55;;;;;;;13.10;5.60;;;;;;;4.79;99.92;99211.92;109496;1253;59213;-67
2023/01/12 07:16:43;;;;;;;12.70;5.40;;;;;;;4.80;99.85;99211.52;109464;1253;72769;-66
2023/01/12 07:19:32;;;;;;;15.30;6.00;;;;;;;4.80;99.53;99210.45;109538;1254;66635;-66
2023/01/12 07:22:20;;;;;;;17.10;5.70;;;;;;;4.83;99.41;99208.13;109486;1252;73443;-65
2023/01/12 07:25:08;;;;;;;16.50;6.30;;;;;;;4.87;99.31;99205.39;109515;1254;58417;-65
2023/01/12 07:27:57;;;;;;;17.50;5.90;;;;;;;4.92;99.22;99203.52;109551;1253;58864;-65
2023/01/12 07:30:45;;;;;;;20.40;6.60;;;;;;;4.93;98.90;99206.41;109514;1253;71756;-67
2023/01/12 07:33:35;;;;;;;17.20;4.60;;;;;;;4.95;98.89;99203.09;109531;1253;68030;-68
2023/01/12 07:36:24;;;;;;;12.10;5.50;;;;;;;4.96;98.50;99197.61;109509;1253;72005;-69
2023/01/12 07:39:15;;;;;;;14.70;5.70;;;;;;;5.01;98.57;99197.29;109493;1253;58241;-67
2023/01/12 07:45:11;;;;;;;13.90;5.60;;;;;;;5.07;98.08;99202.97;109456;1253;73141;-68
2023/01/12 07:47:59;;;;;;;13.80;5.30;;;;;;;5.08;97.79;99201.31;109557;1253;67896;-67
2023/01/12 07:50:47;;;;;;;12.00;4.80;;;;;;;5.08;97.47;99201.91;109535;1254;72325;-68
2023/01/12 07:53:35;;;;;;;11.30;4.80;;;;;;;5.11;97.45;99200.80;109524;1252;59506;-67
2023/01/12 07:56:23;;;;;;;10.90;4.10;;;;;;;5.17;97.32;99200.95;109500;1254;58723;-67
2023/01/12 07:59:11;;;;;;;12.90;4.50;;;;;;;5.22;96.88;99199.71;109560;1252;72868;-67
2023/01/12 08:01:58;;;;;;;17.40;4.90;;;;;;;5.24;96.50;99194.80;109532;1253;67965;-67
2023/01/12 08:04:47;;;;;;;11.90;4.30;;;;;;;5.26;96.43;99193.24;109474;1252;72461;-66
2023/01/12 08:07:34;;;;;;;15.30;5.30;;;;;;;5.26;96.40;99198.02;109490;1251;60505;-66
2023/01/12 08:10:22;;;;;;;13.30;4.80;;;;;;;5.27;96.41;99196.35;109576;1252;59143;-65
2023/01/12 08:13:10;;;;;;;11.10;3.90;;;;;;;5.30;95.98;99195.10;109526;1252;74224;-67
2023/01/12 08:16:05;;;;;;;9.70;3.80;;;;;;;5.38;95.95;99194.39;109587;1253;68284;-67
2023/01/12 08:19:00;;;;;;;11.60;4.10;;;;;;;5.50;94.83;99188.79;109526;1253;71110;-67
2023/01/12 08:21:57;;;;;;;10.80;3.90;;;;;;;5.59;93.98;99182.02;109488;1254;59793;-67
2023/01/12 08:24:58;;;;;;;10.10;3.80;;;;;;;5.63;93.20;99177.12;109566;1253;58707;-67
2023/01/12 08:27:51;;;;;;;11.40;3.90;;;;;;;5.60;93.11;99179.80;109484;1253;72040;-66
2023/01/12 08:30:39;;;;;;;11.40;3.80;;;;;;;5.55;93.24;99177.89;109520;1253;66688;-69
2023/01/12 08:33:26;;;;;;;11.40;3.60;;;;;;;5.53;93.45;99187.66;109429;1252;72477;-69
2023/01/12 08:36:16;;;;;;;11.10;4.40;;;;;;;5.54;93.35;99181.14;109517;1253;59408;-67
2023/01/12 08:39:04;;;;;;;15.00;4.10;;;;;;;5.57;93.67;99176.19;109552;1253;58667;-67
2023/01/12 08:41:52;;;;;;;12.70;3.80;;;;;;;5.58;93.07;99178.55;109520;1252;73993;-69
2023/01/12 08:44:40;;;;;;;11.10;3.40;;;;;;;5.71;92.80;99182.54;109506;1252;67741;-66
2023/01/12 08:47:29;;;;;;;9.30;3.60;;;;;;;5.86;91.89;99170.40;109477;1253;72694;-67
2023/01/12 08:50:17;;;;;;;10.40;3.60;;;;;;;6.02;90.65;99154.30;109510;1253;59726;-69
2023/01/12 08:53:05;;;;;;;12.20;4.30;;;;;;;6.55;88.38;99154.05;109520;1252;58688;-67
2023/01/12 08:55:53;;;;;;;10.20;3.50;;;;;;;6.81;86.41;99156.02;109565;1252;73803;-72
2023/01/12 08:58:42;;;;;;;13.20;3.90;;;;;;;6.58;86.59;99160.05;109494;1252;69028;-70
2023/01/12 09:01:30;;;;;;;10.90;3.60;;;;;;;6.44;87.18;99174.83;109535;1252;71202;-69
2023/01/12 09:04:18;;;;;;;10.70;3.70;;;;;;;6.26;87.66;99180.90;109516;1252;57262;-70
2023/01/12 09:07:07;;;;;;;11.00;3.70;;;;;;;6.15;88.58;99178.89;109485;1252;59347;-70
2023/01/12 09:09:55;;;;;;;12.10;3.80;;;;;;;6.06;88.93;99181.28;109425;1253;72811;-71
2023/01/12 09:12:43;;;;;;;10.50;3.40;;;;;;;5.97;89.48;99181.94;109575;1252;68773;-70
2023/01/12 09:15:31;;;;;;;9.50;3.20;;;;;;;5.90;89.48;99192.07;109491;1252;73523;-71
2023/01/12 09:18:18;;;;;;;10.80;3.40;;;;;;;5.86;89.61;99194.71;109516;1252;60421;-72
2023/01/12 09:21:16;;;;;;;11.20;3.50;;;;;;;5.81;89.83;99192.04;109531;1252;60414;-72
2023/01/12 09:24:04;;;;;;;11.40;3.00;;;;;;;5.78;90.01;99193.11;109511;1252;74220;-72
2023/01/12 09:26:52;;;;;;;10.00;2.80;;;;;;;5.77;90.27;99183.85;109503;1253;67027;-70
2023/01/12 09:29:40;;;;;;;10.80;3.30;;;;;;;5.80;90.50;99179.98;109553;1252;72986;-71
2023/01/12 09:32:28;;;;;;;9.60;3.10;;;;;;;5.83;90.22;99175.71;109460;1254;58338;-71
2023/01/12 09:35:23;;;;;;;8.50;3.20;;;;;;;5.87;89.77;99172.60;109516;1252;59223;-71
2023/01/12 09:38:11;;;;;;;11.10;3.10;;;;;;;5.88;89.92;99168.33;109485;1252;73166;-72
2023/01/12 09:41:08;;;;;;;10.40;3.20;;;;;;;5.89;89.94;99167.18;109510;1251;66871;-70
2023/01/12 09:47:07;;;;;;;11.90;3.50;;;;;;;5.87;90.46;99170.84;109570;1253;59707;-71
2023/01/12 09:50:08;;;;;;;11.10;3.90;;;;;;;5.86;90.80;99182.39;109603;1251;60029;-70
2023/01/12 09:53:05;;;;;;;10.60;3.70;;;;;;;5.85;90.97;99181.20;109529;1253;73457;-73
2023/01/12 09:56:19;;;;;;;10.40;3.50;;;;;;;5.83;90.98;99183.63;109542;1252;66579;-71
2023/01/12 09:59:45;;;;;;;8.80;3.70;;;;;;;5.80;91.11;99180.30;109434;1252;72397;-71
2023/01/12 10:02:36;;;;;;;10.70;4.30;;;;;;;5.77;91.43;99183.35;109487;1251;58022;-71
2023/01/12 10:05:42;;;;;;;10.40;3.50;;;;;;;5.78;91.59;99179.19;109541;1252;59054;-70
2023/01/12 10:08:49;;;;;;;13.20;3.80;;;;;;;5.83;91.64;99176.93;109472;1252;74487;-69
2023/01/12 10:12:08;;;;;;;9.60;3.90;;;;;;;5.88;91.05;99172.71;109551;1252;68121;-72
2023/01/12 10:15:40;;;;;;;13.60;4.40;;;;;;;5.87;90.75;99169.63;109523;1252;71760;-73
2023/01/12 10:18:40;;;;;;;11.00;3.80;;;;;;;5.91;91.25;99162.10;109472;1253;58782;-66
2023/01/12 10:21:31;;;;;;;10.00;3.40;;;;;;;6.09;91.35;99164.51;109402;1253;60087;-66
2023/01/12 10:24:24;;;;;;;13.70;3.70;;;;;;;6.17;91.19;99156.22;109413;1252;73097;-68
2023/01/12 10:27:15;;;;;;;10.60;3.90;;;;;;;6.12;91.75;99153.37;109581;1251;66658;-67
2023/01/12 10:30:35;;;;;;;10.00;3.60;;;;;;;5.98;92.15;99151.23;109566;1252;72555;-69
2023/01/12 10:33:27;;;;;;;12.70;4.00;;;;;;;5.96;92.68;99146.40;109502;1253;59678;-68
2023/01/12 10:36:19;;;;;;;9.20;3.60;;;;;;;5.91;93.19;99139.41;109519;1252;61536;-67
2023/01/12 10:39:38;;;;;;;10.10;3.70;;;;;;;5.91;93.21;99135.88;109581;1252;72550;-69
2023/01/12 10:45:32;;;;;;;12.70;3.60;;;;;;;5.88;93.63;99132.77;108909;1259;72419;-71
2023/01/12 10:48:21;;;;;;;9.80;3.70;;;;;;;5.82;93.71;99129.34;108851;1259;58844;-70
2023/01/12 10:51:29;;;;;;;9.90;3.50;;;;;;;5.80;94.03;99125.78;108986;1259;60485;-71
2023/01/12 10:54:22;;;;;;;11.70;3.70;;;;;;;5.79;93.91;99125.45;109001;1259;71792;-69
2023/01/12 10:57:23;;;;;;;10.70;3.10;;;;;;;5.81;93.55;99120.80;108963;1259;67591;-67
2023/01/12 11:00:23;;;;;;;8.00;3.20;;;;;;;5.83;93.43;99112.50;108946;1259;71867;-67
2023/01/12 11:03:38;;;;;;;11.10;3.70;;;;;;;5.87;93.26;99106.26;108958;1259;58084;-68
2023/01/12 11:06:29;;;;;;;11.50;4.00;;;;;;;5.90;93.30;99105.09;108990;1259;60335;-70
2023/01/12 11:09:26;;;;;;;12.00;4.00;;;;;;;5.87;93.08;99097.45;108940;1259;72092;-70
2023/01/12 11:12:24;;;;;;;9.50;3.40;;;;;;;5.84;93.14;99094.63;108865;1259;68020;-70
2023/01/12 11:15:17;;;;;;;10.30;3.50;;;;;;;5.81;93.42;99093.67;108921;1259;74185;-72
2023/01/12 11:18:14;;;;;;;8.30;3.80;;;;;;;5.76;93.59;99086.06;109027;1253;59816;-70
2023/01/12 11:21:08;;;;;;;9.20;3.70;;;;;;;5.77;93.75;99080.58;109586;1252;58059;-68
2023/01/12 11:24:13;;;;;;;12.80;3.70;;;;;;;5.80;93.55;99070.09;109572;1251;71835;-72
2023/01/12 11:27:34;;;;;;;9.80;3.40;;;;;;;5.87;93.58;99056.05;109610;1251;67991;-71
2023/01/12 11:30:36;;;;;;;10.70;3.60;;;;;;;5.86;93.02;99049.41;109535;1252;73725;-71
2023/01/12 11:33:37;;;;;;;12.50;4.10;;;;;;;5.89;93.03;99048.52;109540;1251;59249;-72
2023/01/12 11:36:34;;;;;;;9.80;3.20;;;;;;;5.89;93.02;99044.85;109600;1252;60314;-73
2023/01/12 11:39:25;;;;;;;10.40;4.00;;;;;;;5.83;93.00;99031.73;109520;1252;71405;-69
2023/01/12 11:45:53;;;;;;;8.20;3.10;;;;;;;5.85;93.14;99029.27;109502;1252;73410;-71
2023/01/12 11:49:31;;;;;;;10.00;3.80;;;;;;;5.89;93.08;99029.00;109539;1252;59678;-71
2023/01/12 11:52:19;;;;;;;14.20;3.90;;;;;;;5.88;92.75;99026.91;109430;1252;58990;-72
2023/01/12 11:55:20;;;;;;;11.20;3.20;;;;;;;5.97;92.85;99021.89;109498;1253;73126;-70
2023/01/12 11:59:04;;;;;;;12.30;3.40;;;;;;;6.04;92.42;99021.49;109500;1252;67885;-76
2023/01/12 12:02:22;;;;;;;13.60;3.80;;;;;;;6.08;91.73;99012.98;109485;1252;72470;-76
2023/01/12 12:05:31;;;;;;;11.40;3.80;;;;;;;6.07;91.73;99007.41;109446;1252;59371;-71
2023/01/12 12:08:47;;;;;;;12.50;3.80;;;;;;;6.10;91.68;99000.33;109518;1252;61285;-72
2023/01/12 12:11:50;;;;;;;14.90;4.00;;;;;;;6.12;91.40;98995.90;109500;1253;72756;-73
2023/01/12 12:15:05;;;;;;;14.30;4.00;;;;;;;6.21;91.04;98993.52;109477;1252;66484;-70
2023/01/12 12:18:19;;;;;;;10.50;3.50;;;;;;;6.43;90.25;98977.53;109468;1252;73388;-71
2023/01/12 12:21:29;;;;;;;12.60;3.80;;;;;;;6.80;88.71;98967.45;109503;1252;57472;-65
2023/01/12 12:25:06;;;;;;;11.40;3.60;;;;;;;7.06;87.14;98966.45;109503;1252;61645;-71
2023/01/12 12:28:09;;;;;;;14.20;4.10;;;;;;;7.13;86.04;98961.08;109513;1252;72950;-71
2023/01/12 12:31:49;;;;;;;10.30;3.90;;;;;;;7.26;85.41;98952.98;109529;1252;66507;-70
2023/01/12 12:34:59;;;;;;;9.90;4.00;;;;;;;7.25;85.06;98940.37;109504;1252;72496;-70
2023/01/12 12:38:07;;;;;;;12.00;3.60;;;;;;;7.68;83.86;98940.20;109496;1252;60287;-64
2023/01/12 12:47:51;;;;;;;11.30;3.10;;;;;;;7.79;81.17;98931.13;109503;1253;66344;-73
2023/01/12 12:51:02;;;;;;;10.80;3.60;;;;;;;7.67;81.99;98920.88;109489;1252;71284;-70
2023/01/12 12:53:53;;;;;;;8.10;2.60;;;;;;;7.41;82.51;98917.13;109371;1253;59250;-70
2023/01/12 12:56:42;;;;;;;13.20;3.40;;;;;;;7.25;83.47;98913.40;109384;1252;60008;-75
2023/01/12 12:59:30;;;;;;;10.60;3.00;;;;;;;7.11;84.40;98917.17;108705;1253;1002425;-72
2023/01/12 13:02:37;;;;;;;10.10;2.60;;;;;;;6.98;85.08;98926.28;109536;1252;67638;-74
2023/01/12 13:05:47;;;;;;;10.20;3.10;;;;;;;6.82;86.09;98915.08;109445;1253;72652;-74
2023/01/12 13:08:35;;;;;;;13.80;3.60;;;;;;;6.72;86.68;98908.14;109436;1253;59529;-70
2023/01/12 13:11:52;;;;;;;10.00;3.20;;;;;;;6.65;87.00;98901.25;109530;1252;60459;-75
2023/01/12 13:14:42;;;;;;;11.60;3.00;;;;;;;6.64;87.25;98901.04;109495;1252;73687;-78
2023/01/12 13:17:30;;;;;;;10.90;4.00;;;;;;;6.56;87.33;98902.36;109489;1252;65774;-76
2023/01/12 13:20:18;;;;;;;10.50;3.10;;;;;;;6.53;87.79;98906.63;109497;1252;72404;-76
2023/01/12 13:23:46;;;;;;;13.30;3.80;;;;;;;6.43;88.20;98908.99;109515;1252;58644;-79
2023/01/12 13:26:34;;;;;;;10.40;2.80;;;;;;;6.40;88.78;98905.91;109492;1252;61397;-75
2023/01/12 13:29:22;;;;;;;9.60;3.20;;;;;;;6.36;88.97;98900.75;109501;1252;71102;-72
2023/01/12 13:32:22;;;;;;;10.40;3.30;;;;;;;6.36;88.90;98898.63;109542;1252;68852;-69
2023/01/12 13:35:33;;;;;;;11.00;3.50;;;;;;;6.38;88.93;98898.33;109544;1251;72848;-69
2023/01/12 13:38:33;;;;;;;9.60;3.20;;;;;;;6.32;89.18;98902.83;109460;1252;57959;-70
2023/01/12 13:44:43;;;;;;;12.90;3.50;;;;;;;6.33;89.40;98885.67;109456;1252;72696;-70
2023/01/12 13:47:32;;;;;;;9.80;3.20;;;;;;;6.32;89.40;98879.06;109554;1252;66416;-68
2023/01/12 13:50:24;;;;;;;10.30;3.30;;;;;;;6.34;89.50;98881.17;109516;1252;71874;-71
2023/01/12 13:53:24;;;;;;;10.30;3.20;;;;;;;6.34;89.46;98875.73;109549;1252;57663;-70
2023/01/12 13:56:19;;;;;;;12.40;3.20;;;;;;;6.29;89.50;98869.54;109452;1251;60056;-74
2023/01/12 13:59:17;;;;;;;13.00;4.10;;;;;;;6.27;90.16;98863.55;109553;1252;73057;-72
2023/01/12 14:02:17;;;;;;;9.80;3.30;;;;;;;6.27;90.09;98867.10;109529;1252;66664;-71
2023/01/12 14:05:29;;;;;;;13.70;3.80;;;;;;;6.26;90.39;98859.60;109502;1251;71117;-71
2023/01/12 14:08:36;;;;;;;11.50;4.10;;;;;;;6.24;90.49;98860.28;109526;1253;60729;-71
2023/01/12 14:11:56;;;;;;;11.50;3.70;;;;;;;6.25;90.48;98858.77;109541;1252;60087;-69
2023/01/12 14:18:16;;;;;;;9.10;3.60;;;;;;;6.26;90.86;98850.81;109469;1252;67758;-70
2023/01/12 14:21:22;;;;;;;11.50;3.60;;;;;;;6.24;90.69;98838.97;109598;1251;71505;-68